Time;durP1;ratioP1;P1;durP2;ratioP2;P2;SDS_P1;SDS_P2;PMS_P1;PMS_P2;Temp;Humidity;BMP_temperature;BMP_pressure;BME280_temperature;BME280_humidity;BME280_pressure;Samples;Min_cycle;Max_cycle;Signal;HPM_P1;HPM_P2
2022/04/30 00:00:29;;;;;;;;;;;;;;;15.98;40.08;100234.47;4474387;32;34150;-65
2022/04/30 00:02:58;;;;;;;;;;;;;;;15.99;40.50;100236.22;4469650;32;34593;-66
2022/04/30 00:05:29;;;;;;;;;;;;;;;15.83;40.49;100241.28;4469443;32;31981;-66
2022/04/30 00:07:56;;;;;;;;;;;;;;;15.79;41.12;100235.28;4468825;32;34245;-65
2022/04/30 00:10:24;;;;;;;;;;;;;;;15.67;41.40;100232.81;4470265;32;34630;-65
2022/04/30 00:12:52;;;;;;;;;;;;;;;15.42;42.03;100229.53;4469309;32;33650;-65
2022/04/30 00:15:20;;;;;;;;;;;;;;;15.34;42.86;100230.22;4473007;32;33490;-67
2022/04/30 00:17:51;;;;;;;;;;;;;;;15.54;41.48;100230.31;4474766;32;34545;-68
2022/04/30 00:20:18;;;;;;;;;;;;;;;15.65;41.00;100227.50;4479903;32;35311;-68
2022/04/30 00:22:46;;;;;;;;;;;;;;;15.64;40.61;100222.28;4473740;32;34137;-67
2022/04/30 00:25:14;;;;;;;;;;;;;;;15.41;42.60;100222.44;4476393;32;33413;-67
2022/04/30 00:27:42;;;;;;;;;;;;;;;15.60;40.87;100218.97;4472824;32;35237;-68
2022/04/30 00:30:10;;;;;;;;;;;;;;;15.56;41.33;100221.06;4471732;32;34084;-70
2022/04/30 00:32:38;;;;;;;;;;;;;;;15.67;40.56;100222.88;4481229;31;33933;-67
2022/04/30 00:35:06;;;;;;;;;;;;;;;15.72;40.56;100228.72;4494019;31;32209;-66
2022/04/30 00:37:33;;;;;;;;;;;;;;;15.81;40.31;100225.19;4491311;31;33967;-70
2022/04/30 00:40:02;;;;;;;;;;;;;;;15.62;41.86;100233.19;4496262;31;34272;-66
2022/04/30 00:42:29;;;;;;;;;;;;;;;15.93;40.20;100217.00;4492898;31;34650;-67
2022/04/30 00:44:57;;;;;;;;;;;;;;;15.87;40.73;100223.81;4487950;31;33170;-67
2022/04/30 00:47:26;;;;;;;;;;;;;;;15.76;40.80;100227.47;4486564;31;32891;-69
2022/04/30 00:49:54;;;;;;;;;;;;;;;15.94;41.05;100226.81;4485706;32;34246;-68
2022/04/30 00:52:25;;;;;;;;;;;;;;;15.95;41.16;100226.66;4484468;31;34207;-67
2022/04/30 00:54:53;;;;;;;;;;;;;;;16.00;41.26;100229.81;4482847;31;31983;-67
2022/04/30 00:57:24;;;;;;;;;;;;;;;15.34;42.87;100232.91;4475462;31;35691;-68
2022/04/30 00:59:54;;;;;;;;;;;;;;;15.43;42.62;100233.94;4474650;32;35592;-68
2022/04/30 01:02:22;;;;;;;;;;;;;;;15.83;41.56;100239.41;4472050;31;32890;-68
2022/04/30 01:04:53;;;;;;;;;;;;;;;15.42;42.72;100232.25;4472935;31;32954;-67
2022/04/30 01:07:21;;;;;;;;;;;;;;;15.81;41.51;100237.84;4488567;31;32927;-67
2022/04/30 01:09:49;;;;;;;;;;;;;;;15.56;42.21;100241.81;4486078;31;34627;-69
2022/04/30 01:12:17;;;;;;;;;;;;;;;15.47;42.40;100235.38;4474222;32;34144;-67
2022/04/30 01:14:45;;;;;;;;;;;;;;;15.70;42.04;100233.41;4474707;32;33455;-67
2022/04/30 01:17:13;;;;;;;;;;;;;;;15.83;41.33;100230.47;4485353;31;34118;-69
2022/04/30 01:19:43;;;;;;;;;;;;;;;15.83;41.17;100231.31;4470672;32;32811;-68
2022/04/30 01:22:14;;;;;;;;;;;;;;;15.60;41.35;100227.94;4490946;31;34179;-67
2022/04/30 01:24:41;;;;;;;;;;;;;;;15.59;40.94;100231.59;4494044;31;33284;-67
2022/04/30 01:27:09;;;;;;;;;;;;;;;15.44;41.74;100224.00;4499668;31;34290;-68
2022/04/30 01:29:38;;;;;;;;;;;;;;;15.42;41.45;100226.84;4483816;32;34394;-68
2022/04/30 01:37:38;;;;;;;;;;;;;;;15.28;42.35;100224.47;4496329;31;34095;-67
2022/04/30 01:40:07;;;;;;;;;;;;;;;15.26;41.83;100226.47;4495877;31;34543;-68
2022/04/30 01:42:35;;;;;;;;;;;;;;;15.26;41.85;100219.22;4485331;31;33693;-68
2022/04/30 01:45:04;;;;;;;;;;;;;;;15.27;41.39;100220.09;4491129;31;34577;-67
2022/04/30 01:47:33;;;;;;;;;;;;;;;14.94;41.87;100211.22;4500002;31;34247;-67
2022/04/30 01:50:01;;;;;;;;;;;;;;;15.00;41.58;100199.06;4482669;31;33277;-69
2022/04/30 01:52:30;;;;;;;;;;;;;;;14.88;41.86;100200.97;4484419;31;34091;-66
2022/04/30 01:54:58;;;;;;;;;;;;;;;14.92;41.60;100202.41;4483616;32;33194;-68
2022/04/30 01:57:26;;;;;;;;;;;;;;;14.82;41.62;100204.19;4485945;31;33782;-66
2022/04/30 01:59:57;;;;;;;;;;;;;;;14.44;42.49;100200.16;4490217;31;35360;-66
2022/04/30 02:02:30;;;;;;;;;;;;;;;14.18;42.79;100196.94;4492951;31;34325;-65
2022/04/30 02:05:00;;;;;;;;;;;;;;;14.41;42.06;100193.22;4483194;31;32204;-66
2022/04/30 02:07:31;;;;;;;;;;;;;;;14.35;42.34;100190.16;4495063;31;34939;-65
2022/04/30 02:10:04;;;;;;;;;;;;;;;14.50;41.90;100186.19;4484945;31;34068;-66
2022/04/30 02:12:33;;;;;;;;;;;;;;;14.67;41.89;100200.97;4480861;31;33126;-65
2022/04/30 02:15:04;;;;;;;;;;;;;;;14.75;41.69;100190.38;4492404;31;31837;-66
2022/04/30 02:17:36;;;;;;;;;;;;;;;14.83;41.41;100189.72;4493262;31;35761;-65
2022/04/30 02:20:19;;;;;;;;;;;;;;;14.84;41.58;100199.53;4484071;31;35495;-66
2022/04/30 02:22:50;;;;;;;;;;;;;;;14.43;42.71;100193.06;4481415;31;34196;-68
2022/04/30 02:25:21;;;;;;;;;;;;;;;14.03;43.40;100193.69;4480638;31;33191;-67
2022/04/30 02:27:53;;;;;;;;;;;;;;;13.94;43.77;100195.28;4482382;31;34119;-67
2022/04/30 02:30:22;;;;;;;;;;;;;;;14.00;43.44;100188.56;4494929;31;34145;-67
2022/04/30 02:33:11;;;;;;;;;;;;;;;14.03;43.93;100193.69;4479579;31;33987;-67
2022/04/30 02:35:44;;;;;;;;;;;;;;;13.82;44.12;100187.38;4481448;31;33072;-66
2022/04/30 02:38:19;;;;;;;;;;;;;;;13.86;43.57;100186.97;4478492;31;33042;-66
2022/04/30 02:40:49;;;;;;;;;;;;;;;13.85;43.34;100187.13;4494666;31;34040;-66
2022/04/30 02:43:26;;;;;;;;;;;;;;;13.83;44.13;100189.06;4493531;31;33935;-66
2022/04/30 02:45:58;;;;;;;;;;;;;;;14.10;43.02;100176.06;4482016;32;33023;-65
2022/04/30 02:48:34;;;;;;;;;;;;;;;14.27;42.46;100181.88;4486114;31;33108;-66
2022/04/30 02:51:03;;;;;;;;;;;;;;;13.95;43.69;100178.16;4494080;31;34499;-66
2022/04/30 02:53:31;;;;;;;;;;;;;;;14.07;43.12;100176.31;4488182;31;33717;-66
2022/04/30 02:55:59;;;;;;;;;;;;;;;14.17;42.57;100169.16;4495977;31;31601;-66
2022/04/30 03:01:15;;;;;;;;;;;;;;;13.88;43.22;100163.50;4483502;31;34951;-68
2022/04/30 03:03:44;;;;;;;;;;;;;;;14.06;42.91;100154.88;4496104;31;34086;-65
2022/04/30 03:06:13;;;;;;;;;;;;;;;14.04;43.44;100154.19;4497236;31;33261;-66
2022/04/30 03:08:42;;;;;;;;;;;;;;;13.85;44.42;100162.91;4480883;31;34936;-66
2022/04/30 03:11:12;;;;;;;;;;;;;;;14.05;43.42;100159.41;4471210;32;34555;-65
2022/04/30 03:13:41;;;;;;;;;;;;;;;14.09;42.92;100160.91;4482717;31;34392;-66
2022/04/30 03:21:47;;;;;;;;;;;;;;;13.99;43.68;100166.16;4484012;31;34195;-66
2022/04/30 03:24:16;;;;;;;;;;;;;;;14.10;42.80;100164.44;4485653;31;33835;-64
2022/04/30 03:26:45;;;;;;;;;;;;;;;14.06;43.07;100165.66;4497566;31;34936;-67
2022/04/30 03:29:15;;;;;;;;;;;;;;;14.13;42.97;100164.19;4489800;31;32793;-65
2022/04/30 03:31:43;;;;;;;;;;;;;;;14.21;42.57;100176.00;4480455;31;35450;-64
2022/04/30 03:34:14;;;;;;;;;;;;;;;14.07;42.95;100167.38;4483470;31;34100;-67
2022/04/30 03:36:43;;;;;;;;;;;;;;;14.11;42.84;100172.37;4494408;31;33770;-64
2022/04/30 03:39:11;;;;;;;;;;;;;;;14.18;42.84;100170.88;4481194;31;33929;-68
2022/04/30 03:41:39;;;;;;;;;;;;;;;13.90;43.32;100174.12;4488106;31;34181;-68
2022/04/30 03:44:08;;;;;;;;;;;;;;;14.02;43.04;100173.13;4492976;31;32858;-67
2022/04/30 03:46:37;;;;;;;;;;;;;;;14.02;43.05;100177.66;4490737;31;34482;-64
2022/04/30 03:49:06;;;;;;;;;;;;;;;13.91;43.23;100165.94;4492417;31;34927;-64
2022/04/30 03:51:34;;;;;;;;;;;;;;;13.90;43.59;100174.12;4486031;31;34632;-65
2022/04/30 03:54:03;;;;;;;;;;;;;;;13.86;43.55;100170.84;4480627;32;35479;-64
2022/04/30 03:56:32;;;;;;;;;;;;;;;14.00;43.17;100169.72;4494522;31;34285;-64
2022/04/30 03:59:01;;;;;;;;;;;;;;;14.10;43.16;100170.66;4495418;31;34640;-68
2022/04/30 04:01:30;;;;;;;;;;;;;;;14.18;43.28;100173.56;4480191;32;33890;-68
2022/04/30 04:04:00;;;;;;;;;;;;;;;14.32;42.67;100168.91;4479963;32;34181;-68
2022/04/30 04:06:29;;;;;;;;;;;;;;;14.34;42.70;100172.28;4480757;31;33931;-68
2022/04/30 04:08:59;;;;;;;;;;;;;;;14.43;42.46;100171.53;4481131;32;34325;-68
2022/04/30 04:11:28;;;;;;;;;;;;;;;14.55;42.16;100170.53;4484630;31;34367;-67
2022/04/30 04:19:32;;;;;;;;;;;;;;;14.54;42.34;100173.34;4480168;31;32867;-67
2022/04/30 04:22:06;;;;;;;;;;;;;;;14.69;42.06;100180.13;4488987;31;32906;-67
2022/04/30 04:27:22;;;;;;;;;;;;;;;14.77;41.78;100182.19;4495112;31;34146;-67
2022/04/30 04:29:51;;;;;;;;;;;;;;;14.99;41.49;100183.88;4484829;31;33836;-66
2022/04/30 04:32:19;;;;;;;;;;;;;;;15.14;41.65;100186.09;4480396;31;34441;-64
2022/04/30 04:34:48;;;;;;;;;;;;;;;15.17;41.80;100178.72;4478424;31;34296;-65
2022/04/30 04:37:19;;;;;;;;;;;;;;;15.42;41.24;100189.09;4480065;32;33213;-65
2022/04/30 04:39:47;;;;;;;;;;;;;;;15.57;41.06;100185.03;4482844;31;32886;-64
2022/04/30 04:42:16;;;;;;;;;;;;;;;15.76;40.99;100187.00;4481997;32;34223;-67
2022/04/30 04:44:43;;;;;;;;;;;;;;;16.01;39.68;100185.59;4483254;32;34827;-68
2022/04/30 04:47:14;;;;;;;;;;;;;;;16.06;40.60;100191.44;4481879;32;34431;-70
2022/04/30 04:49:42;;;;;;;;;;;;;;;16.26;40.13;100191.47;4468520;32;33210;-67
2022/04/30 04:52:11;;;;;;;;;;;;;;;16.36;40.16;100191.50;4482955;31;34063;-68
2022/04/30 04:54:39;;;;;;;;;;;;;;;16.57;40.32;100188.66;4469261;32;34204;-67
2022/04/30 04:57:08;;;;;;;;;;;;;;;16.69;39.62;100191.09;4481013;31;33307;-68
2022/04/30 04:59:36;;;;;;;;;;;;;;;16.84;40.76;100185.25;4468997;32;34491;-67
2022/04/30 05:02:05;;;;;;;;;;;;;;;17.03;39.34;100182.53;4482934;31;34257;-69
2022/04/30 05:04:34;;;;;;;;;;;;;;;17.21;38.52;100182.63;4482802;32;34446;-70
2022/04/30 05:07:13;;;;;;;;;;;;;;;17.16;39.86;100191.16;4482577;31;33936;-69
2022/04/30 05:09:48;;;;;;;;;;;;;;;17.41;39.25;100186.97;4482751;31;33077;-67
2022/04/30 05:12:16;;;;;;;;;;;;;;;17.52;40.11;100177.81;4490236;31;35437;-71
2022/04/30 05:14:46;;;;;;;;;;;;;;;17.55;39.21;100193.75;4498926;31;34099;-70
2022/04/30 05:17:15;;;;;;;;;;;;;;;17.83;38.55;100193.81;4497513;31;32486;-73
2022/04/30 05:19:43;;;;;;;;;;;;;;;17.87;37.55;100193.34;4494298;31;34264;-67
2022/04/30 05:22:12;;;;;;;;;;;;;;;17.61;37.87;100195.84;4489447;31;34455;-66
2022/04/30 05:24:40;;;;;;;;;;;;;;;17.47;38.98;100188.25;4483569;32;33863;-70
2022/04/30 05:27:09;;;;;;;;;;;;;;;17.85;37.29;100195.38;4481062;31;33820;-66
2022/04/30 05:29:37;;;;;;;;;;;;;;;17.92;37.76;100188.34;4484052;31;34155;-67
2022/04/30 05:32:05;;;;;;;;;;;;;;;17.88;37.44;100189.66;4492096;31;35139;-67
2022/04/30 05:34:34;;;;;;;;;;;;;;;18.07;37.06;100201.34;4491804;31;34217;-67
2022/04/30 05:37:02;;;;;;;;;;;;;;;18.18;38.39;100194.88;4488888;31;34433;-66
2022/04/30 05:39:30;;;;;;;;;;;;;;;17.81;37.71;100191.22;4473269;31;32705;-67
2022/04/30 05:41:58;;;;;;;;;;;;;;;17.80;38.17;100189.53;4495874;31;35549;-68
2022/04/30 05:44:27;;;;;;;;;;;;;;;18.30;36.92;100194.53;4497874;31;34979;-69
2022/04/30 05:46:55;;;;;;;;;;;;;;;18.57;37.00;100188.16;4476929;31;33298;-69
2022/04/30 05:49:23;;;;;;;;;;;;;;;18.69;36.31;100186.06;4482559;31;34479;-71
2022/04/30 05:51:51;;;;;;;;;;;;;;;18.44;36.47;100189.56;4492241;31;36230;-69
2022/04/30 05:54:19;;;;;;;;;;;;;;;18.27;37.33;100196.69;4481454;32;34026;-69
2022/04/30 05:56:52;;;;;;;;;;;;;;;17.93;36.59;100195.44;4481072;32;32702;-68
2022/04/30 05:59:20;;;;;;;;;;;;;;;18.00;36.27;100192.97;4481799;31;34318;-69
2022/04/30 06:01:48;;;;;;;;;;;;;;;17.85;36.56;100194.53;4484937;31;35485;-68
2022/04/30 06:04:18;;;;;;;;;;;;;;;17.68;35.62;100196.13;4473548;31;32589;-68
2022/04/30 06:06:46;;;;;;;;;;;;;;;17.67;36.77;100197.97;4484135;31;32211;-71
2022/04/30 06:09:14;;;;;;;;;;;;;;;18.15;34.52;100191.47;4481723;32;35420;-72
2022/04/30 06:11:43;;;;;;;;;;;;;;;17.76;34.53;100192.69;4479995;32;32954;-68
2022/04/30 06:14:11;;;;;;;;;;;;;;;17.70;35.86;100194.13;4481047;31;35594;-69
2022/04/30 06:16:40;;;;;;;;;;;;;;;17.76;35.96;100193.53;4483382;31;33091;-68
2022/04/30 06:19:09;;;;;;;;;;;;;;;17.69;35.43;100195.97;4483655;31;32854;-72
2022/04/30 06:21:40;;;;;;;;;;;;;;;17.72;35.97;100202.06;4484084;31;35491;-68
2022/04/30 06:24:08;;;;;;;;;;;;;;;17.55;35.61;100190.19;4481997;31;33988;-68
2022/04/30 06:26:36;;;;;;;;;;;;;;;17.45;35.75;100201.91;4491941;31;32997;-71
2022/04/30 06:29:04;;;;;;;;;;;;;;;17.28;36.63;100196.44;4485779;31;33442;-68
2022/04/30 06:31:32;;;;;;;;;;;;;;;17.87;35.23;100198.75;4490263;31;34834;-68
2022/04/30 06:34:00;;;;;;;;;;;;;;;17.37;35.34;100196.37;4479702;31;34816;-69
2022/04/30 06:36:29;;;;;;;;;;;;;;;17.34;35.80;100204.81;4479634;31;32703;-69
2022/04/30 06:38:57;;;;;;;;;;;;;;;16.88;36.79;100203.75;4478027;31;32358;-69
2022/04/30 06:41:29;;;;;;;;;;;;;;;17.25;36.32;100197.56;4484957;31;34136;-68
2022/04/30 06:44:00;;;;;;;;;;;;;;;16.94;36.43;100192.34;4480642;31;35666;-68
2022/04/30 06:46:29;;;;;;;;;;;;;;;17.11;36.64;100201.59;4490020;31;33412;-68
2022/04/30 06:48:58;;;;;;;;;;;;;;;17.37;36.06;100195.53;4491551;31;35180;-71
2022/04/30 06:51:25;;;;;;;;;;;;;;;16.38;37.74;100194.91;4484978;31;34688;-69
2022/04/30 06:59:28;;;;;;;;;;;;;;;17.82;35.31;100195.66;4487185;31;33055;-68
2022/04/30 07:02:18;;;;;;;;;;;;;;;17.34;36.33;100191.28;4483023;31;35292;-68
2022/04/30 07:04:46;;;;;;;;;;;;;;;17.54;36.38;100199.31;4488207;31;34065;-68
2022/04/30 07:07:15;;;;;;;;;;;;;;;17.96;36.04;100198.88;4486217;31;33028;-69
2022/04/30 07:09:43;;;;;;;;;;;;;;;17.70;35.96;100196.81;4483037;31;33259;-70
2022/04/30 07:12:13;;;;;;;;;;;;;;;17.81;36.30;100202.06;4485203;31;34197;-68
2022/04/30 07:14:42;;;;;;;;;;;;;;;17.40;36.83;100196.09;4490358;31;34702;-69
2022/04/30 07:17:12;;;;;;;;;;;;;;;17.72;36.63;100192.13;4489079;31;34336;-68
2022/04/30 07:19:41;;;;;;;;;;;;;;;17.26;37.08;100188.44;4468056;31;32600;-68
2022/04/30 07:22:10;;;;;;;;;;;;;;;17.87;36.02;100195.19;4495538;31;32945;-68
2022/04/30 07:24:39;;;;;;;;;;;;;;;17.93;36.77;100190.03;4488077;31;34062;-68
2022/04/30 07:27:08;;;;;;;;;;;;;;;17.94;36.36;100185.47;4479359;31;33149;-69
2022/04/30 07:29:38;;;;;;;;;;;;;;;18.01;36.39;100191.12;4483948;31;33407;-68
2022/04/30 07:32:07;;;;;;;;;;;;;;;18.80;35.78;100193.97;4481098;31;34472;-68
2022/04/30 07:34:39;;;;;;;;;;;;;;;18.27;35.72;100186.69;4468887;31;33095;-69
2022/04/30 07:37:11;;;;;;;;;;;;;;;17.91;36.85;100186.66;4468573;31;32608;-68
2022/04/30 07:39:40;;;;;;;;;;;;;;;18.36;36.76;100180.34;4481258;31;33149;-69
2022/04/30 07:42:09;;;;;;;;;;;;;;;18.66;35.98;100174.69;4486112;31;34132;-69
2022/04/30 07:44:38;;;;;;;;;;;;;;;18.78;35.46;100178.88;4488541;31;32910;-68
2022/04/30 07:47:08;;;;;;;;;;;;;;;18.94;35.54;100178.16;4482528;31;32919;-68
2022/04/30 07:49:36;;;;;;;;;;;;;;;18.95;35.59;100177.16;4482795;31;34238;-69
2022/04/30 07:52:05;;;;;;;;;;;;;;;18.61;36.13;100177.84;4483902;31;32875;-68
2022/04/30 07:54:35;;;;;;;;;;;;;;;18.68;35.57;100181.62;4484235;31;36177;-68
2022/04/30 07:57:04;;;;;;;;;;;;;;;19.61;34.40;100181.09;4485641;31;33269;-68
2022/04/30 07:59:32;;;;;;;;;;;;;;;19.34;34.38;100171.31;4493168;31;32945;-68
2022/04/30 08:02:01;;;;;;;;;;;;;;;18.42;36.42;100173.44;4486107;31;33035;-68
2022/04/30 08:04:29;;;;;;;;;;;;;;;19.00;35.66;100174.81;4481782;31;32963;-69
2022/04/30 08:06:59;;;;;;;;;;;;;;;19.20;34.99;100179.03;4480330;31;32114;-69
2022/04/30 08:09:28;;;;;;;;;;;;;;;18.66;35.91;100175.53;4481920;31;33331;-69
2022/04/30 08:11:55;;;;;;;;;;;;;;;18.73;35.32;100175.78;4489536;31;34350;-68
2022/04/30 08:14:23;;;;;;;;;;;;;;;18.97;35.02;100177.84;4482615;31;33890;-68
2022/04/30 08:16:51;;;;;;;;;;;;;;;19.47;34.33;100183.41;4484295;31;35682;-68
2022/04/30 08:19:19;;;;;;;;;;;;;;;19.50;34.64;100184.97;4487418;31;35767;-68
2022/04/30 08:21:48;;;;;;;;;;;;;;;19.03;34.67;100177.19;4486839;31;34881;-69
2022/04/30 08:24:37;;;;;;;;;;;;;;;19.41;34.55;100183.22;4489417;31;33743;-69
2022/04/30 08:27:05;;;;;;;;;;;;;;;20.37;32.97;100180.22;4496137;31;33209;-67
2022/04/30 08:29:33;;;;;;;;;;;;;;;20.43;32.57;100182.25;4476084;31;32288;-68
2022/04/30 08:32:02;;;;;;;;;;;;;;;20.29;33.23;100175.63;4492894;31;34172;-70
2022/04/30 08:34:31;;;;;;;;;;;;;;;20.65;32.65;100176.19;4471204;32;33498;-71
2022/04/30 08:36:58;;;;;;;;;;;;;;;20.14;32.72;100180.00;4455688;31;31982;-69
2022/04/30 08:39:27;;;;;;;;;;;;;;;20.79;32.09;100174.66;4477989;31;32765;-68
2022/04/30 08:41:56;;;;;;;;;;;;;;;20.37;33.08;100174.75;4496790;31;34338;-68
2022/04/30 08:44:25;;;;;;;;;;;;;;;20.76;31.05;100175.00;4475275;31;34102;-70
2022/04/30 08:46:56;;;;;;;;;;;;;;;21.21;30.51;100172.75;4488489;31;34279;-72
2022/04/30 08:49:24;;;;;;;;;;;;;;;21.23;29.98;100168.81;4483002;31;32996;-70
2022/04/30 08:51:52;;;;;;;;;;;;;;;21.36;29.30;100160.16;4472649;32;33990;-68
2022/04/30 08:54:20;;;;;;;;;;;;;;;20.88;29.69;100162.75;4480682;31;33814;-69
2022/04/30 08:56:53;;;;;;;;;;;;;;;21.36;29.13;100162.87;4484376;31;32091;-68
2022/04/30 08:59:23;;;;;;;;;;;;;;;21.52;28.01;100168.28;4496717;31;32973;-69
2022/04/30 09:01:52;;;;;;;;;;;;;;;21.97;28.70;100155.81;4493000;31;33985;-69
2022/04/30 09:04:21;;;;;;;;;;;;;;;21.76;27.60;100152.84;4492891;31;33097;-69
2022/04/30 09:06:52;;;;;;;;;;;;;;;22.08;27.61;100149.09;4499358;31;33602;-69
2022/04/30 09:09:30;;;;;;;;;;;;;;;21.44;28.86;100149.22;4496531;31;33853;-68
2022/04/30 09:12:08;;;;;;;;;;;;;;;21.59;27.54;100157.53;4496716;31;34074;-69
2022/04/30 09:14:37;;;;;;;;;;;;;;;21.71;27.64;100153.38;4487072;31;33754;-69
2022/04/30 09:17:06;;;;;;;;;;;;;;;22.12;27.52;100144.12;4482974;31;32283;-71
2022/04/30 09:19:48;;;;;;;;;;;;;;;21.52;26.55;100138.31;4481873;31;32928;-69
2022/04/30 09:22:38;;;;;;;;;;;;;;;21.92;26.89;100136.41;4472555;31;32889;-70
2022/04/30 09:25:10;;;;;;;;;;;;;;;22.24;26.32;100131.81;4492132;31;34981;-69
2022/04/30 09:27:59;;;;;;;;;;;;;;;22.19;25.67;100134.25;4486706;31;33102;-68
2022/04/30 09:30:29;;;;;;;;;;;;;;;22.43;26.07;100136.78;4484820;31;34071;-68
2022/04/30 09:32:58;;;;;;;;;;;;;;;22.07;26.13;100129.19;4471999;31;32781;-68
2022/04/30 09:38:20;;;;;;;;;;;;;;;22.14;25.06;100118.41;4484692;31;33354;-69
2022/04/30 09:40:58;;;;;;;;;;;;;;;21.79;26.10;100120.66;4493338;31;32981;-69
2022/04/30 09:43:34;;;;;;;;;;;;;;;22.01;25.84;100118.16;4490056;31;33177;-72
2022/04/30 09:46:15;;;;;;;;;;;;;;;22.12;25.67;100122.31;4483575;31;32897;-71
2022/04/30 09:54:26;;;;;;;;;;;;;;;23.15;25.09;100117.25;4484573;31;34670;-68
2022/04/30 09:56:59;;;;;;;;;;;;;;;22.87;24.41;100100.63;4472954;31;34007;-69
2022/04/30 09:59:34;;;;;;;;;;;;;;;22.43;25.23;100112.25;4492887;31;32209;-70
2022/04/30 10:02:05;;;;;;;;;;;;;;;22.61;24.97;100101.03;4500573;31;34666;-69
2022/04/30 10:04:38;;;;;;;;;;;;;;;22.64;23.68;100092.50;4485927;31;35151;-68
2022/04/30 10:07:09;;;;;;;;;;;;;;;22.40;25.49;100100.88;4484336;31;32666;-69
2022/04/30 10:09:46;;;;;;;;;;;;;;;22.16;26.36;100094.56;4472491;32;31881;-69
2022/04/30 10:12:24;;;;;;;;;;;;;;;21.94;25.03;100095.38;4493722;31;34081;-69
2022/04/30 10:15:05;;;;;;;;;;;;;;;21.77;26.02;100090.03;4484120;32;35218;-68
2022/04/30 10:17:42;;;;;;;;;;;;;;;22.35;24.51;100090.53;4484761;32;34866;-68
2022/04/30 10:20:18;;;;;;;;;;;;;;;22.77;24.88;100087.25;4473156;32;32362;-69
2022/04/30 10:22:52;;;;;;;;;;;;;;;22.41;26.46;100087.06;4498107;31;33065;-71
2022/04/30 10:25:40;;;;;;;;;;;;;;;22.27;26.30;100082.38;4484461;31;33398;-69
2022/04/30 10:28:16;;;;;;;;;;;;;;;22.00;26.67;100070.13;4470822;31;33064;-68
2022/04/30 10:30:50;;;;;;;;;;;;;;;22.58;25.06;100074.13;4494773;31;32166;-67
2022/04/30 10:33:23;;;;;;;;;;;;;;;22.45;25.84;100082.94;4493902;31;34308;-69
2022/04/30 10:36:07;;;;;;;;;;;;;;;21.81;26.12;100079.62;4467986;31;35405;-67
2022/04/30 10:38:35;;;;;;;;;;;;;;;22.12;26.08;100070.53;4484042;31;34093;-67
2022/04/30 10:41:03;;;;;;;;;;;;;;;21.85;27.29;100070.03;4484362;31;33344;-68
2022/04/30 10:43:35;;;;;;;;;;;;;;;22.23;26.86;100068.28;4497103;31;33022;-67
2022/04/30 10:46:05;;;;;;;;;;;;;;;22.22;26.62;100073.94;4481384;31;32981;-68
2022/04/30 10:48:32;;;;;;;;;;;;;;;22.90;25.22;100067.50;4496693;31;33979;-68
2022/04/30 10:51:10;;;;;;;;;;;;;;;23.23;25.48;100065.25;4496912;31;33399;-68
2022/04/30 10:53:41;;;;;;;;;;;;;;;23.64;23.05;100055.72;4495348;31;34138;-68
2022/04/30 10:56:09;;;;;;;;;;;;;;;22.86;23.57;100058.00;4491052;31;34070;-70
2022/04/30 10:58:38;;;;;;;;;;;;;;;23.27;21.35;100051.25;4489161;31;34302;-67
2022/04/30 11:01:12;;;;;;;;;;;;;;;23.18;23.26;100058.69;4496622;31;32814;-67
2022/04/30 11:03:43;;;;;;;;;;;;;;;23.55;23.45;100062.31;4470495;31;33952;-69
2022/04/30 11:06:11;;;;;;;;;;;;;;;24.04;23.56;100039.75;4487880;31;34281;-68
2022/04/30 11:08:39;;;;;;;;;;;;;;;24.36;22.83;100039.22;4487078;31;34936;-69
2022/04/30 11:11:08;;;;;;;;;;;;;;;23.70;23.24;100044.03;4483358;32;33042;-69
2022/04/30 11:13:35;;;;;;;;;;;;;;;24.57;22.79;100043.87;4467975;32;34233;-72
2022/04/30 11:16:12;;;;;;;;;;;;;;;24.56;21.77;100042.19;4474830;31;34637;-69
2022/04/30 11:18:39;;;;;;;;;;;;;;;23.62;21.21;100042.22;4482317;31;34790;-68
2022/04/30 11:21:07;;;;;;;;;;;;;;;24.40;20.54;100029.59;4481702;31;32317;-68
2022/04/30 11:23:35;;;;;;;;;;;;;;;23.45;21.43;100038.03;4486657;31;33024;-69
2022/04/30 11:26:02;;;;;;;;;;;;;;;24.15;20.00;100031.91;4480536;31;34260;-69
2022/04/30 11:28:30;;;;;;;;;;;;;;;24.59;20.44;100032.69;4482140;31;34836;-68
2022/04/30 11:30:59;;;;;;;;;;;;;;;24.35;22.33;100034.81;4481505;31;32058;-68
2022/04/30 11:33:33;;;;;;;;;;;;;;;24.84;21.62;100022.16;4487903;31;34312;-68
2022/04/30 11:36:01;;;;;;;;;;;;;;;24.94;21.43;100025.38;4482866;31;36513;-68
2022/04/30 11:38:29;;;;;;;;;;;;;;;24.80;20.17;100021.72;4485032;31;34121;-69
2022/04/30 11:41:03;;;;;;;;;;;;;;;24.69;21.36;100015.94;4483294;31;32175;-70
2022/04/30 11:43:31;;;;;;;;;;;;;;;25.40;20.55;100007.53;4490834;31;33921;-68
2022/04/30 11:46:00;;;;;;;;;;;;;;;25.68;20.89;100015.62;4487643;31;34383;-68
2022/04/30 11:48:31;;;;;;;;;;;;;;;24.25;21.11;100012.41;4481291;31;34176;-68
2022/04/30 11:50:59;;;;;;;;;;;;;;;24.23;20.18;100006.28;4485779;31;33340;-69
2022/04/30 11:53:27;;;;;;;;;;;;;;;24.36;19.84;100009.13;4468160;32;32615;-67
2022/04/30 11:55:54;;;;;;;;;;;;;;;24.63;20.39;100004.75;4467865;31;34588;-68
2022/04/30 11:58:22;;;;;;;;;;;;;;;23.87;20.17;100011.84;4485043;31;34527;-72
2022/04/30 12:01:19;;;;;;;;;;;;;;;24.64;19.84;99998.22;4481446;31;34316;-68
2022/04/30 12:03:52;;;;;;;;;;;;;;;23.52;20.87;99994.41;4485240;31;34189;-69
2022/04/30 12:06:20;;;;;;;;;;;;;;;23.94;19.84;99990.88;4482586;31;35484;-68
2022/04/30 12:08:48;;;;;;;;;;;;;;;24.24;20.78;99975.19;4484167;31;34796;-69
2022/04/30 12:11:16;;;;;;;;;;;;;;;24.00;21.07;99983.78;4490113;31;33639;-68
2022/04/30 12:13:43;;;;;;;;;;;;;;;24.90;21.23;99983.03;4491697;31;34041;-71
2022/04/30 12:16:11;;;;;;;;;;;;;;;24.00;20.98;99983.78;4492385;31;34421;-68
2022/04/30 12:27:01;;;;;;;;;;;;;;;23.27;21.41;99981.06;4477972;31;34215;-68
2022/04/30 12:29:30;;;;;;;;;;;;;;;23.57;20.99;99984.59;4479297;31;34021;-67
2022/04/30 12:31:57;;;;;;;;;;;;;;;23.49;21.94;99976.50;4478057;31;33573;-68
2022/04/30 12:34:27;;;;;;;;;;;;;;;24.20;21.41;99973.03;4485958;31;32957;-68
2022/04/30 12:36:57;;;;;;;;;;;;;;;23.66;21.68;99967.06;4488782;31;33540;-67
2022/04/30 12:39:26;;;;;;;;;;;;;;;23.53;22.73;99972.38;4493601;31;34250;-68
2022/04/30 12:41:57;;;;;;;;;;;;;;;23.46;21.83;99963.22;4490650;31;34589;-68
2022/04/30 12:44:26;;;;;;;;;;;;;;;23.97;21.98;99971.34;4468023;31;32602;-67
2022/04/30 12:46:54;;;;;;;;;;;;;;;23.39;22.48;99970.50;4472982;32;33901;-68
2022/04/30 12:49:22;;;;;;;;;;;;;;;22.87;22.67;99969.63;4483088;31;33118;-67
2022/04/30 12:51:51;;;;;;;;;;;;;;;22.86;22.31;99962.47;4482024;31;32062;-67
2022/04/30 12:54:19;;;;;;;;;;;;;;;23.25;22.17;99953.13;4491628;31;34268;-67
2022/04/30 12:56:46;;;;;;;;;;;;;;;23.43;22.36;99959.00;4486728;31;34177;-67
2022/04/30 12:59:16;;;;;;;;;;;;;;;22.67;22.70;99952.97;4484137;31;34150;-67
2022/04/30 13:01:44;;;;;;;;;;;;;;;23.41;22.47;99949.34;4480147;31;33418;-67
2022/04/30 13:04:12;;;;;;;;;;;;;;;23.74;22.13;99943.38;4486377;31;30963;-67
2022/04/30 13:06:41;;;;;;;;;;;;;;;23.82;22.14;99933.19;4485353;31;34134;-70
2022/04/30 13:14:41;;;;;;;;;;;;;;;22.63;23.28;99939.87;4487724;31;34466;-68
2022/04/30 13:17:10;;;;;;;;;;;;;;;23.69;22.40;99935.75;4491226;31;33086;-66
2022/04/30 13:19:44;;;;;;;;;;;;;;;23.29;22.58;99929.84;4479618;31;33253;-67
2022/04/30 13:22:13;;;;;;;;;;;;;;;23.05;22.60;99932.91;4480711;31;33044;-69
2022/04/30 13:24:41;;;;;;;;;;;;;;;23.46;22.16;99934.03;4469751;31;34811;-67
2022/04/30 13:27:08;;;;;;;;;;;;;;;23.51;22.20;99924.44;4491863;31;34215;-67
2022/04/30 13:29:37;;;;;;;;;;;;;;;23.11;22.38;99921.22;4485035;31;33730;-68
2022/04/30 13:32:05;;;;;;;;;;;;;;;23.24;22.33;99929.56;4477883;31;33051;-67
2022/04/30 13:34:32;;;;;;;;;;;;;;;23.47;21.80;99915.78;4498034;31;33913;-68
2022/04/30 13:37:01;;;;;;;;;;;;;;;23.91;21.72;99912.00;4479795;31;34852;-68
2022/04/30 13:39:28;;;;;;;;;;;;;;;23.26;22.19;99919.31;4486317;31;34563;-67
2022/04/30 13:41:56;;;;;;;;;;;;;;;23.64;21.92;99905.44;4486326;31;32224;-67